createdAt,value
2023-04-24T00:01:32.591Z,10.13
2023-04-24T00:04:00.806Z,9.80
2023-04-24T00:06:34.220Z,9.32
2023-04-24T00:09:02.343Z,10.00
2023-04-24T00:11:29.988Z,10.77
2023-04-24T00:13:58.220Z,11.05
2023-04-24T00:16:25.423Z,10.70
2023-04-24T00:18:53.857Z,11.38
2023-04-24T00:21:21.708Z,10.70
2023-04-24T00:23:49.262Z,10.95
2023-04-24T00:26:16.621Z,10.75
2023-04-24T00:28:43.999Z,11.35
2023-04-24T00:31:11.450Z,11.90
2023-04-24T00:33:38.695Z,10.50
2023-04-24T00:36:06.032Z,12.32
2023-04-24T00:38:33.197Z,10.55
2023-04-24T00:41:01.006Z,10.98
2023-04-24T00:43:28.139Z,11.07
2023-04-24T00:45:56.015Z,9.95
2023-04-24T00:48:24.261Z,9.18
2023-04-24T00:50:51.501Z,9.43
2023-04-24T00:53:18.677Z,9.20
2023-04-24T00:55:46.422Z,10.32
2023-04-24T00:58:14.043Z,9.77
2023-04-24T01:00:42.158Z,8.57
2023-04-24T01:03:09.891Z,9.45
2023-04-24T01:05:37.381Z,9.45
2023-04-24T01:08:04.658Z,8.65
2023-04-24T01:10:34.093Z,7.93
2023-04-24T01:13:01.481Z,10.48
2023-04-24T01:15:28.718Z,8.90
2023-04-24T01:17:55.854Z,8.60
2023-04-24T01:20:23.712Z,9.52
2023-04-24T01:22:50.895Z,9.25
2023-04-24T01:25:18.324Z,9.50
2023-04-24T01:27:45.847Z,9.80
2023-04-24T01:30:14.040Z,9.27
2023-04-24T01:32:45.569Z,9.68
2023-04-24T01:35:12.874Z,9.27
2023-04-24T01:37:40.109Z,8.88
2023-04-24T01:40:08.436Z,10.15
2023-04-24T01:42:36.225Z,10.77
2023-04-24T01:45:05.353Z,10.35
2023-04-24T01:47:34.905Z,9.73
2023-04-24T01:50:02.110Z,9.88
2023-04-24T01:52:32.288Z,10.07
2023-04-24T01:55:01.571Z,9.98
2023-04-24T01:57:31.926Z,10.68
2023-04-24T01:59:59.361Z,9.82
2023-04-24T02:02:28.718Z,10.70
2023-04-24T02:04:56.373Z,10.45
2023-04-24T02:07:23.801Z,10.18
2023-04-24T02:09:51.014Z,10.20
2023-04-24T02:12:18.608Z,10.80
2023-04-24T02:14:45.840Z,10.48
2023-04-24T02:17:14.265Z,10.27
2023-04-24T02:19:41.620Z,10.95
2023-04-24T02:22:09.322Z,10.65
2023-04-24T02:24:36.451Z,10.45
2023-04-24T02:27:03.953Z,11.48
2023-04-24T02:29:31.578Z,9.73
2023-04-24T02:31:58.645Z,12.18
2023-04-24T02:34:25.848Z,9.90
2023-04-24T02:36:54.930Z,10.65
2023-04-24T02:39:22.159Z,10.27
2023-04-24T02:41:49.278Z,9.88
2023-04-24T02:44:16.432Z,10.43
2023-04-24T02:46:43.641Z,10.23
2023-04-24T02:49:10.776Z,9.77
2023-04-24T02:51:41.777Z,9.40
2023-04-24T02:54:12.865Z,9.80
2023-04-24T02:56:40.015Z,9.80
2023-04-24T02:59:07.151Z,8.82
2023-04-24T03:01:34.733Z,8.90
2023-04-24T03:04:02.568Z,9.73
2023-04-24T03:06:29.987Z,9.68
2023-04-24T03:08:57.044Z,9.85
2023-04-24T03:11:24.328Z,10.07
2023-04-24T03:13:51.556Z,10.30
2023-04-24T03:16:18.716Z,9.90
2023-04-24T03:18:45.874Z,10.18
2023-04-24T03:21:13.344Z,9.88
2023-04-24T03:23:40.664Z,10.10
2023-04-24T03:26:07.778Z,9.98
2023-04-24T03:28:34.904Z,9.20
2023-04-24T03:31:22.385Z,9.50
2023-04-24T03:33:49.667Z,10.02
2023-04-24T03:36:16.725Z,10.02
2023-04-24T03:38:43.771Z,9.63
2023-04-24T03:41:10.908Z,8.93
2023-04-24T03:43:38.429Z,9.75
2023-04-24T03:46:05.670Z,9.38
2023-04-24T03:48:32.810Z,8.82
2023-04-24T03:50:59.862Z,10.43
2023-04-24T03:53:27.673Z,9.40
2023-04-24T03:55:54.917Z,9.43
2023-04-24T03:58:21.988Z,9.43
2023-04-24T04:00:49.222Z,9.98
2023-04-24T04:03:16.660Z,8.98
2023-04-24T04:05:44.018Z,9.73
2023-04-24T04:08:11.459Z,9.82
2023-04-24T04:10:38.596Z,8.23
2023-04-24T04:13:07.612Z,9.10
2023-04-24T04:15:34.790Z,9.55
2023-04-24T04:18:01.853Z,9.00
2023-04-24T04:20:29.291Z,9.52
2023-04-24T04:22:56.434Z,8.88
2023-04-24T04:25:24.305Z,9.00
2023-04-24T04:27:52.164Z,9.27
2023-04-24T04:30:19.594Z,9.35
2023-04-24T04:32:46.691Z,8.82
2023-04-24T04:35:13.928Z,8.80
2023-04-24T04:37:41.248Z,8.82
2023-04-24T04:40:12.744Z,8.57
2023-04-24T04:42:41.501Z,9.02
2023-04-24T04:45:12.600Z,8.55
2023-04-24T04:47:40.794Z,8.07
2023-04-24T04:50:08.312Z,8.50
2023-04-24T04:52:35.448Z,8.30
2023-04-24T04:55:02.823Z,8.90
2023-04-24T04:57:32.255Z,8.27
2023-04-24T04:59:59.334Z,8.98
2023-04-24T05:02:26.600Z,8.75
2023-04-24T05:04:54.042Z,9.15
2023-04-24T05:07:21.417Z,8.40
2023-04-24T05:09:48.576Z,9.18
2023-04-24T05:12:15.690Z,9.40
2023-04-24T05:14:42.956Z,9.07
2023-04-24T05:17:10.134Z,10.00
2023-04-24T05:19:39.060Z,10.95
2023-04-24T05:22:07.858Z,9.88
2023-04-24T05:24:35.657Z,10.10
2023-04-24T05:27:03.702Z,10.00
2023-04-24T05:29:32.385Z,11.32
2023-04-24T05:32:00.036Z,10.52
2023-04-24T05:34:27.188Z,10.30
2023-04-24T05:36:54.452Z,10.02
2023-04-24T05:39:21.628Z,10.32
2023-04-24T05:41:48.777Z,11.02
2023-04-24T05:44:15.856Z,10.77
2023-04-24T05:46:43.083Z,10.73
2023-04-24T05:49:10.304Z,10.65
2023-04-24T05:51:37.498Z,10.63
2023-04-24T05:54:04.870Z,9.95
2023-04-24T05:56:32.340Z,10.32
2023-04-24T05:58:59.443Z,11.02
2023-04-24T06:01:26.562Z,10.13
2023-04-24T06:03:54.633Z,10.23
2023-04-24T06:06:22.239Z,10.27
2023-04-24T06:08:49.432Z,10.20
2023-04-24T06:11:16.964Z,9.20
2023-04-24T06:13:44.101Z,10.77
2023-04-24T06:16:11.335Z,10.88
2023-04-24T06:18:38.493Z,9.63
2023-04-24T06:21:06.295Z,9.75
2023-04-24T06:23:34.132Z,8.45
2023-04-24T06:26:01.411Z,9.20
2023-04-24T06:28:28.542Z,8.30
2023-04-24T06:31:14.351Z,8.80
2023-04-24T06:33:41.772Z,8.75
2023-04-24T06:36:08.922Z,8.23
2023-04-24T06:38:36.182Z,9.20
2023-04-24T06:41:23.719Z,9.02
2023-04-24T06:43:51.127Z,8.73
2023-04-24T06:46:18.416Z,8.77
2023-04-24T06:48:45.664Z,7.63
2023-04-24T06:51:12.891Z,8.55
2023-04-24T06:53:40.088Z,7.20
2023-04-24T06:56:07.217Z,7.75
2023-04-24T06:58:34.443Z,8.02
2023-04-24T07:01:20.566Z,7.60
2023-04-24T07:03:48.301Z,7.65
2023-04-24T07:06:17.592Z,7.88
2023-04-24T07:08:44.867Z,7.22
2023-04-24T07:11:11.970Z,7.32
2023-04-24T07:13:42.965Z,6.07
2023-04-24T07:16:10.952Z,6.75
2023-04-24T07:18:38.504Z,6.30
2023-04-24T07:21:05.689Z,5.47
2023-04-24T07:23:32.768Z,5.80
2023-04-24T07:26:00.018Z,6.07
2023-04-24T07:28:27.262Z,5.95
2023-04-24T07:30:55.256Z,5.63
2023-04-24T07:33:22.484Z,4.90
2023-04-24T07:35:49.979Z,5.78
2023-04-24T07:38:17.291Z,5.20
2023-04-24T07:40:44.932Z,5.18
2023-04-24T07:43:12.944Z,4.68
2023-04-24T07:45:40.759Z,5.07
2023-04-24T07:48:10.083Z,4.63
2023-04-24T07:50:37.870Z,4.50
2023-04-24T07:53:04.959Z,5.22
2023-04-24T07:55:32.444Z,5.43
2023-04-24T07:57:59.603Z,4.93
2023-04-24T08:00:26.957Z,4.55
2023-04-24T08:02:54.479Z,4.15
2023-04-24T08:05:22.112Z,4.10
2023-04-24T08:08:08.008Z,3.88
2023-04-24T08:10:35.179Z,4.00
2023-04-24T08:13:03.087Z,3.83
2023-04-24T08:15:30.372Z,4.38
2023-04-24T08:17:59.209Z,4.18
2023-04-24T08:20:26.488Z,3.92
2023-04-24T08:22:53.660Z,4.18
2023-04-24T08:25:20.919Z,4.10
2023-04-24T08:27:48.076Z,4.20
2023-04-24T08:30:15.339Z,3.90
2023-04-24T08:32:42.823Z,3.50
2023-04-24T08:35:10.816Z,3.90
2023-04-24T08:37:38.490Z,3.40
2023-04-24T08:40:14.185Z,3.55
2023-04-24T08:42:44.185Z,3.97
2023-04-24T08:45:14.576Z,3.67
2023-04-24T08:47:43.341Z,3.80
2023-04-24T08:50:29.808Z,4.05
2023-04-24T08:52:58.188Z,4.13
2023-04-24T08:55:26.691Z,3.85
2023-04-24T08:57:54.838Z,4.32
2023-04-24T09:00:22.944Z,3.78
2023-04-24T09:02:51.736Z,3.63
2023-04-24T09:05:22.456Z,3.90
2023-04-24T09:07:57.370Z,4.00
2023-04-24T09:10:27.730Z,3.95
2023-04-24T09:12:56.137Z,4.20
2023-04-24T09:15:23.388Z,4.28
2023-04-24T09:17:51.110Z,4.18
2023-04-24T09:20:18.433Z,4.00
2023-04-24T09:22:46.713Z,4.00
2023-04-24T09:25:13.964Z,4.03
2023-04-24T09:27:46.077Z,3.97
2023-04-24T09:30:13.819Z,3.97
2023-04-24T09:32:41.721Z,3.67
2023-04-24T09:35:15.409Z,3.72
2023-04-24T09:37:49.996Z,3.70
2023-04-24T09:40:19.329Z,3.60
2023-04-24T09:42:55.481Z,3.78
2023-04-24T09:45:22.925Z,3.80
2023-04-24T09:47:56.826Z,3.78
2023-04-24T09:50:24.426Z,3.58
2023-04-24T09:53:11.848Z,3.55
2023-04-24T09:55:47.452Z,3.80
2023-04-24T09:58:14.576Z,3.55
2023-04-24T10:00:42.222Z,3.58
2023-04-24T10:03:09.633Z,3.97
2023-04-24T10:05:38.530Z,3.42
2023-04-24T10:08:11.565Z,3.42
2023-04-24T10:10:44.046Z,3.70
2023-04-24T10:13:12.579Z,3.25
2023-04-24T10:15:41.747Z,3.60
2023-04-24T10:18:10.369Z,3.88
2023-04-24T10:20:39.432Z,3.50
2023-04-24T10:23:07.079Z,3.45
2023-04-24T10:25:36.294Z,3.60
2023-04-24T10:28:04.351Z,3.60
2023-04-24T10:30:38.600Z,3.47
2023-04-24T10:33:07.844Z,3.55
2023-04-24T10:35:46.847Z,3.67
2023-04-24T10:38:17.909Z,3.58
2023-04-24T10:40:45.451Z,3.50
2023-04-24T10:43:19.717Z,4.53
2023-04-24T10:46:07.172Z,3.20
2023-04-24T10:48:35.305Z,14.80
2023-04-24T10:51:03.332Z,23.10
2023-04-24T10:53:31.968Z,3.22
2023-04-24T10:56:07.901Z,3.55
2023-04-24T10:58:46.195Z,3.38
2023-04-24T11:01:30.632Z,6.90
2023-04-24T11:03:59.924Z,3.15
2023-04-24T11:06:45.332Z,3.53
2023-04-24T11:09:17.460Z,6.90
2023-04-24T11:11:48.482Z,3.40
2023-04-24T11:14:16.551Z,3.10
2023-04-24T11:16:54.185Z,3.55
2023-04-24T11:19:26.482Z,4.45
2023-04-24T11:22:04.129Z,3.70
2023-04-24T11:24:40.459Z,3.80
2023-04-24T11:27:20.913Z,3.50
2023-04-24T11:30:02.274Z,3.60
2023-04-24T11:32:41.653Z,3.63
2023-04-24T11:35:17.821Z,3.60
2023-04-24T11:40:29.414Z,3.58
2023-04-24T11:42:56.798Z,2.97
2023-04-24T11:45:26.399Z,3.15
2023-04-24T11:47:54.197Z,3.20
2023-04-24T11:50:24.653Z,3.08
2023-04-24T11:52:52.281Z,3.05
2023-04-24T11:55:19.855Z,3.22
2023-04-24T11:57:49.486Z,3.20
2023-04-24T12:00:19.928Z,3.35
2023-04-24T12:02:47.963Z,3.72
2023-04-24T12:05:41.865Z,3.05
2023-04-24T12:08:09.254Z,3.30
2023-04-24T12:10:36.973Z,3.35
2023-04-24T12:13:04.835Z,3.20
2023-04-24T12:15:32.295Z,3.28
2023-04-24T12:18:00.317Z,3.22
2023-04-24T12:20:34.514Z,2.88
2023-04-24T12:23:02.783Z,2.92
2023-04-24T12:25:33.668Z,3.00
2023-04-24T12:28:07.274Z,3.03
2023-04-24T12:30:52.936Z,3.22
2023-04-24T12:33:23.439Z,3.30
2023-04-24T12:35:54.986Z,3.13
2023-04-24T12:38:27.700Z,2.70
2023-04-24T12:41:06.218Z,2.63
2023-04-24T12:43:34.420Z,2.80
2023-04-24T12:46:01.757Z,2.95
2023-04-24T12:48:29.761Z,3.30
2023-04-24T12:51:01.750Z,2.63
2023-04-24T12:53:30.687Z,2.95
2023-04-24T12:55:58.096Z,2.75
2023-04-24T12:58:25.657Z,3.10
2023-04-24T13:00:52.933Z,2.70
2023-04-24T13:03:21.060Z,3.08
2023-04-24T13:05:48.385Z,3.15
2023-04-24T13:08:15.682Z,3.03
2023-04-24T13:10:43.049Z,2.88
2023-04-24T13:13:10.478Z,2.92
2023-04-24T13:15:37.731Z,2.97
2023-04-24T13:18:05.064Z,3.38
2023-04-24T13:20:32.300Z,3.28
2023-04-24T13:22:59.435Z,2.88
2023-04-24T13:25:27.675Z,3.28
2023-04-24T13:27:54.871Z,3.00
2023-04-24T13:30:21.989Z,3.38
2023-04-24T13:32:49.391Z,2.90
2023-04-24T13:35:16.507Z,6.38
2023-04-24T13:37:43.576Z,3.30
2023-04-24T13:40:11.458Z,3.47
2023-04-24T13:42:38.767Z,3.25
2023-04-24T13:45:23.318Z,3.00
2023-04-24T13:47:52.451Z,3.00
2023-04-24T13:50:20.376Z,3.40
2023-04-24T13:52:47.657Z,3.20
2023-04-24T13:55:15.010Z,3.00
2023-04-24T13:57:42.084Z,2.97
2023-04-24T14:00:11.690Z,3.35
2023-04-24T14:02:39.351Z,3.28
2023-04-24T14:05:07.662Z,3.20
2023-04-24T14:07:35.041Z,3.10
2023-04-24T14:10:02.174Z,3.03
2023-04-24T14:12:31.867Z,2.90
2023-04-24T14:14:59.025Z,2.97
2023-04-24T14:17:26.215Z,2.95
2023-04-24T14:19:53.727Z,3.28
2023-04-24T14:22:21.298Z,3.00
2023-04-24T14:24:48.797Z,3.33
2023-04-24T14:27:15.852Z,3.10
2023-04-24T14:29:42.896Z,3.05
2023-04-24T14:32:10.119Z,3.60
2023-04-24T14:34:37.250Z,4.80
2023-04-24T14:37:04.318Z,3.67
2023-04-24T14:39:31.558Z,3.13
2023-04-24T14:41:58.653Z,2.75
2023-04-24T14:44:26.031Z,2.63
2023-04-24T14:46:53.219Z,3.40
2023-04-24T14:49:20.493Z,3.17
2023-04-24T14:51:47.590Z,3.10
2023-04-24T14:54:14.923Z,2.80
2023-04-24T14:56:42.154Z,3.13
2023-04-24T14:59:09.524Z,2.72
2023-04-24T15:01:36.666Z,3.00
2023-04-24T15:04:03.930Z,3.20
2023-04-24T15:06:32.946Z,3.13
2023-04-24T15:09:00.925Z,3.30
2023-04-24T15:11:28.650Z,3.22
2023-04-24T15:13:56.712Z,3.13
2023-04-24T15:16:25.496Z,3.50
2023-04-24T15:18:52.709Z,3.00
2023-04-24T15:21:19.850Z,3.13
2023-04-24T15:23:47.241Z,3.30
2023-04-24T15:26:14.730Z,3.17
2023-04-24T15:28:41.874Z,3.20
2023-04-24T15:31:09.610Z,3.40
2023-04-24T15:33:36.713Z,3.55
2023-04-24T15:36:03.907Z,3.60
2023-04-24T15:38:31.553Z,3.03
2023-04-24T15:40:58.730Z,3.60
2023-04-24T15:43:26.098Z,3.70
2023-04-24T15:45:53.300Z,3.70
2023-04-24T15:48:20.490Z,3.10
2023-04-24T15:50:47.544Z,3.63
2023-04-24T15:53:14.680Z,3.50
2023-04-24T15:55:41.873Z,3.72
2023-04-24T15:58:08.966Z,3.75
2023-04-24T16:00:37.277Z,3.05
2023-04-24T16:03:05.383Z,3.63
2023-04-24T16:05:34.603Z,3.67
2023-04-24T16:08:01.860Z,4.25
2023-04-24T16:10:29.053Z,3.92
2023-04-24T16:12:56.456Z,4.85
2023-04-24T16:15:23.679Z,3.78
2023-04-24T16:17:51.276Z,3.50
2023-04-24T16:20:18.943Z,3.72
2023-04-24T16:22:46.054Z,4.28
2023-04-24T16:25:13.614Z,3.78
2023-04-24T16:27:40.973Z,4.10
2023-04-24T16:30:08.748Z,3.47
2023-04-24T16:32:36.284Z,4.03
2023-04-24T16:35:03.534Z,3.70
2023-04-24T16:37:31.886Z,3.67
2023-04-24T16:39:59.071Z,3.60
2023-04-24T16:42:26.556Z,3.72
2023-04-24T16:44:53.849Z,3.90
2023-04-24T16:47:21.054Z,3.58
2023-04-24T16:49:49.742Z,4.13
2023-04-24T16:52:16.841Z,3.65
2023-04-24T16:54:44.115Z,4.15
2023-04-24T16:57:11.387Z,4.00
2023-04-24T16:59:38.722Z,4.45
2023-04-24T17:02:05.932Z,4.15
2023-04-24T17:04:35.962Z,4.53
2023-04-24T17:07:03.306Z,4.20
2023-04-24T17:09:30.874Z,4.00
2023-04-24T17:11:58.012Z,3.70
2023-04-24T17:14:26.699Z,4.43
2023-04-24T17:16:53.889Z,4.50
2023-04-24T17:19:21.452Z,4.05
2023-04-24T17:21:48.661Z,4.28
2023-04-24T17:24:15.970Z,4.60
2023-04-24T17:26:43.100Z,4.65
2023-04-24T17:29:10.752Z,4.68
2023-04-24T17:31:37.984Z,4.22
2023-04-24T17:34:05.348Z,4.35
2023-04-24T17:36:32.882Z,4.20
2023-04-24T17:39:00.024Z,4.05
2023-04-24T17:41:30.003Z,4.47
2023-04-24T17:43:57.171Z,4.50
2023-04-24T17:46:27.199Z,5.15
2023-04-24T17:48:54.586Z,4.65
2023-04-24T17:51:21.966Z,4.50
2023-04-24T17:53:49.384Z,5.00
2023-04-24T17:56:16.584Z,5.03
2023-04-24T17:58:43.841Z,4.60
2023-04-24T18:01:30.766Z,4.68
2023-04-24T18:03:58.311Z,5.20
2023-04-24T18:06:26.990Z,4.75
2023-04-24T18:08:54.244Z,4.90
2023-04-24T18:11:21.874Z,5.00
2023-04-24T18:13:49.738Z,4.88
2023-04-24T18:16:16.942Z,4.50
2023-04-24T18:18:44.231Z,4.55
2023-04-24T18:21:31.782Z,4.40
2023-04-24T18:24:00.539Z,5.18
2023-04-24T18:26:28.340Z,4.82
2023-04-24T18:28:55.579Z,5.05
2023-04-24T18:31:22.752Z,4.70
2023-04-24T18:33:49.974Z,4.82
2023-04-24T18:36:17.426Z,4.93
2023-04-24T18:38:44.509Z,5.10
2023-04-24T18:41:12.447Z,5.60
2023-04-24T18:43:39.553Z,5.53
2023-04-24T18:46:06.628Z,5.47
2023-04-24T18:48:33.731Z,5.68
2023-04-24T18:51:00.984Z,6.30
2023-04-24T18:53:28.104Z,5.93
2023-04-24T18:55:55.225Z,6.10
2023-04-24T18:58:22.361Z,5.60
2023-04-24T19:00:49.556Z,5.50
2023-04-24T19:03:16.966Z,5.63
2023-04-24T19:05:44.206Z,5.38
2023-04-24T19:08:11.447Z,5.50
2023-04-24T19:10:38.571Z,5.78
2023-04-24T19:13:06.072Z,5.40
2023-04-24T19:15:33.904Z,5.90
2023-04-24T19:18:01.206Z,5.55
2023-04-24T19:20:28.584Z,5.85
2023-04-24T19:22:55.901Z,6.03
2023-04-24T19:25:23.194Z,6.50
2023-04-24T19:27:50.361Z,6.53
2023-04-24T19:30:17.525Z,6.00
2023-04-24T19:32:44.729Z,6.57
2023-04-24T19:35:11.890Z,6.78
2023-04-24T19:37:39.248Z,5.93
2023-04-24T19:40:07.376Z,6.60
2023-04-24T19:42:43.075Z,6.10
2023-04-24T19:45:12.830Z,6.20
2023-04-24T19:47:40.079Z,5.68
2023-04-24T19:50:08.120Z,6.10
2023-04-24T19:52:35.518Z,6.15
2023-04-24T19:55:02.710Z,5.85
2023-04-24T19:57:31.232Z,6.18
2023-04-24T19:59:58.312Z,6.20
2023-04-24T20:02:26.095Z,6.13
2023-04-24T20:04:53.596Z,6.53
2023-04-24T20:07:21.339Z,6.15
2023-04-24T20:09:48.429Z,5.85
2023-04-24T20:12:16.263Z,7.03
2023-04-24T20:14:43.361Z,6.75
2023-04-24T20:17:10.565Z,6.53
2023-04-24T20:19:37.891Z,6.18
2023-04-24T20:22:05.059Z,6.68
2023-04-24T20:24:32.333Z,7.43
2023-04-24T20:26:59.454Z,6.85
2023-04-24T20:29:26.600Z,6.45
2023-04-24T20:31:53.936Z,6.35
2023-04-24T20:34:22.131Z,6.68
2023-04-24T20:36:49.886Z,5.60
2023-04-24T20:39:17.309Z,6.15
2023-04-24T20:41:46.400Z,5.70
2023-04-24T20:44:13.633Z,5.90
2023-04-24T20:46:40.877Z,6.07
2023-04-24T20:49:08.124Z,6.05
2023-04-24T20:51:36.871Z,5.60
2023-04-24T20:54:04.193Z,5.32
2023-04-24T20:56:31.607Z,5.78
2023-04-24T20:58:58.779Z,5.50
2023-04-24T21:01:26.006Z,6.78
2023-04-24T21:03:53.640Z,5.57
2023-04-24T21:06:21.617Z,5.55
2023-04-24T21:08:48.814Z,5.40
2023-04-24T21:11:15.948Z,6.30
2023-04-24T21:13:43.215Z,5.88
2023-04-24T21:16:10.360Z,5.82
2023-04-24T21:18:41.336Z,6.00
2023-04-24T21:21:09.402Z,6.07
2023-04-24T21:23:36.714Z,5.50
2023-04-24T21:26:04.444Z,5.60
2023-04-24T21:28:31.772Z,5.80
2023-04-24T21:30:58.888Z,6.10
2023-04-24T21:33:26.288Z,5.95
2023-04-24T21:35:53.424Z,5.43
2023-04-24T21:38:23.314Z,5.78
2023-04-24T21:40:51.714Z,5.05
2023-04-24T21:43:21.811Z,5.57
2023-04-24T21:45:54.841Z,6.07
2023-04-24T21:48:22.061Z,6.20
2023-04-24T21:50:49.251Z,6.20
2023-04-24T21:53:16.376Z,9.70
2023-04-24T21:55:44.750Z,7.93
2023-04-24T21:58:12.859Z,6.90
2023-04-24T22:00:39.945Z,8.15
2023-04-24T22:03:07.236Z,22.73
2023-04-24T22:05:34.575Z,44.00
2023-04-24T22:08:01.725Z,19.17
2023-04-24T22:10:29.083Z,42.47
2023-04-24T22:12:56.327Z,17.27
2023-04-24T22:15:23.505Z,8.98
2023-04-24T22:17:52.796Z,9.55
2023-04-24T22:20:20.418Z,8.45
2023-04-24T22:22:48.451Z,8.30
2023-04-24T22:25:15.571Z,8.18
2023-04-24T22:27:42.709Z,7.82
2023-04-24T22:30:10.361Z,7.40
2023-04-24T22:32:37.920Z,9.05
2023-04-24T22:35:06.094Z,9.30
2023-04-24T22:37:33.281Z,8.80
2023-04-24T22:40:01.419Z,7.50
2023-04-24T22:42:31.930Z,6.28
2023-04-24T22:44:59.000Z,6.30
2023-04-24T22:47:26.129Z,6.10
2023-04-24T22:49:53.927Z,6.00
2023-04-24T22:52:21.838Z,6.43
2023-04-24T22:54:48.979Z,6.35
2023-04-24T22:57:16.217Z,5.68
2023-04-24T22:59:43.787Z,5.93
2023-04-24T23:02:10.937Z,5.55
2023-04-24T23:04:38.097Z,6.15
2023-04-24T23:07:05.118Z,5.88
2023-04-24T23:09:32.319Z,5.68
2023-04-24T23:11:59.468Z,5.90
2023-04-24T23:14:27.497Z,6.22
2023-04-24T23:16:54.781Z,5.82
2023-04-24T23:19:21.873Z,5.78
2023-04-24T23:21:50.087Z,5.70
2023-04-24T23:24:17.363Z,5.70
2023-04-24T23:26:44.522Z,5.80
2023-04-24T23:29:11.569Z,5.80
2023-04-24T23:31:38.629Z,5.57
2023-04-24T23:34:06.020Z,5.55
2023-04-24T23:36:33.254Z,5.68
2023-04-24T23:39:01.314Z,5.63
2023-04-24T23:41:28.576Z,5.45
2023-04-24T23:43:55.728Z,5.30
2023-04-24T23:46:23.044Z,5.65
2023-04-24T23:48:50.268Z,5.63
2023-04-24T23:51:17.868Z,5.32
2023-04-24T23:53:45.229Z,5.20
2023-04-24T23:56:12.482Z,5.10
2023-04-24T23:58:39.712Z,5.13
